createdAt,value
2019-03-31T00:01:54.066Z,1.40
2019-03-31T00:04:42.131Z,1.10
2019-03-31T00:07:31.503Z,1.13
2019-03-31T00:10:20.614Z,1.20
2019-03-31T00:13:08.527Z,1.60
2019-03-31T00:15:56.727Z,1.40
2019-03-31T00:18:44.753Z,1.53
2019-03-31T00:21:32.531Z,1.40
2019-03-31T00:24:20.690Z,1.30
2019-03-31T00:27:08.431Z,1.40
2019-03-31T00:29:56.698Z,1.50
2019-03-31T00:32:44.245Z,1.60
2019-03-31T00:35:34.358Z,1.57
2019-03-31T00:38:22.361Z,1.80
2019-03-31T00:41:10.506Z,1.80
2019-03-31T00:43:58.565Z,2.07
2019-03-31T00:46:45.827Z,2.20
2019-03-31T00:49:33.944Z,1.90
2019-03-31T00:52:22.219Z,1.77
2019-03-31T00:55:10.012Z,2.00
2019-03-31T00:57:57.850Z,2.00
2019-03-31T01:01:03.740Z,1.57
2019-03-31T01:03:51.746Z,2.10
2019-03-31T01:06:40.152Z,1.83
2019-03-31T01:09:31.385Z,1.70
2019-03-31T01:12:19.534Z,2.20
2019-03-31T01:15:12.682Z,2.10
2019-03-31T01:18:00.718Z,2.13
2019-03-31T01:20:48.200Z,1.97
2019-03-31T01:23:36.112Z,2.17
2019-03-31T01:26:23.739Z,2.23
2019-03-31T01:29:11.670Z,2.10
2019-03-31T01:31:59.942Z,2.30
2019-03-31T01:34:48.185Z,2.23
2019-03-31T01:37:36.422Z,2.37
2019-03-31T01:40:24.065Z,2.20
2019-03-31T01:43:12.159Z,2.10
2019-03-31T01:46:00.913Z,2.40
2019-03-31T01:48:49.023Z,2.07
2019-03-31T01:51:37.247Z,2.40
2019-03-31T01:54:25.296Z,2.33
2019-03-31T01:57:13.067Z,2.17
2019-03-31T02:00:01.113Z,2.40
2019-03-31T02:02:49.131Z,2.47
2019-03-31T02:05:40.269Z,2.37
2019-03-31T02:08:27.970Z,2.50
2019-03-31T02:11:17.742Z,2.30
2019-03-31T02:14:13.755Z,2.10
2019-03-31T02:17:03.372Z,2.60
2019-03-31T02:19:51.602Z,2.27
2019-03-31T02:22:39.639Z,2.47
2019-03-31T02:25:27.922Z,2.10
2019-03-31T02:28:16.364Z,1.90
2019-03-31T02:31:03.912Z,2.30
2019-03-31T02:33:54.950Z,2.10
2019-03-31T02:36:45.645Z,2.17
2019-03-31T02:39:37.362Z,2.13
2019-03-31T02:42:25.479Z,2.27
2019-03-31T02:45:21.841Z,2.37
2019-03-31T02:48:10.054Z,2.10
2019-03-31T02:54:48.835Z,1.90
2019-03-31T02:58:11.698Z,2.10
2019-03-31T03:01:08.196Z,2.00
2019-03-31T03:03:56.817Z,1.63
2019-03-31T03:06:48.278Z,1.90
2019-03-31T03:09:37.537Z,2.10
2019-03-31T03:12:56.034Z,1.70
2019-03-31T03:15:48.119Z,1.87
2019-03-31T03:18:36.117Z,1.80
2019-03-31T03:24:31.700Z,1.47
2019-03-31T03:27:19.963Z,1.73
2019-03-31T03:30:08.646Z,1.33
2019-03-31T03:33:15.127Z,1.60
2019-03-31T03:35:50.548Z,1.37
2019-03-31T03:38:38.948Z,1.57
2019-03-31T03:41:27.594Z,1.20
2019-03-31T03:44:15.804Z,1.53
2019-03-31T03:47:03.707Z,1.37
2019-03-31T03:49:51.968Z,1.13
2019-03-31T03:52:39.568Z,1.40
2019-03-31T03:55:27.952Z,1.33
2019-03-31T03:58:16.544Z,1.23
2019-03-31T04:01:11.693Z,1.20
2019-03-31T04:04:00.067Z,1.10
2019-03-31T04:06:49.700Z,1.23
2019-03-31T04:09:38.140Z,1.00
2019-03-31T04:12:26.606Z,0.90
2019-03-31T04:15:16.951Z,1.10
2019-03-31T04:18:04.844Z,1.17
2019-03-31T04:20:52.798Z,1.10
2019-03-31T04:23:40.961Z,1.10
2019-03-31T04:26:30.937Z,1.00
2019-03-31T04:29:24.590Z,0.80
2019-03-31T04:32:12.829Z,0.90
2019-03-31T04:35:01.738Z,0.90
2019-03-31T04:37:51.396Z,0.83
2019-03-31T04:40:45.042Z,0.90
2019-03-31T04:43:36.164Z,0.90
2019-03-31T04:46:24.220Z,0.90
2019-03-31T04:49:30.183Z,0.70
2019-03-31T04:52:18.335Z,0.70
2019-03-31T04:55:06.549Z,0.73
2019-03-31T04:57:58.061Z,0.90
2019-03-31T05:00:46.232Z,0.60
2019-03-31T05:03:34.324Z,0.60
2019-03-31T05:06:23.166Z,0.70
2019-03-31T05:09:11.571Z,0.83
2019-03-31T05:12:00.046Z,0.70
2019-03-31T05:17:39.092Z,0.70
2019-03-31T05:20:28.044Z,0.80
2019-03-31T05:23:22.855Z,0.67
2019-03-31T05:26:12.704Z,0.67
2019-03-31T05:29:21.103Z,0.50
2019-03-31T05:32:26.114Z,0.60
2019-03-31T05:35:14.655Z,0.60
2019-03-31T05:38:05.759Z,0.50
2019-03-31T05:40:57.067Z,0.70
2019-03-31T05:43:48.170Z,0.50
2019-03-31T05:46:46.948Z,0.40
2019-03-31T05:49:59.435Z,0.40
2019-03-31T05:52:48.664Z,0.30
2019-03-31T05:55:37.197Z,0.40
2019-03-31T05:58:35.503Z,0.30
2019-03-31T06:01:26.293Z,0.40
2019-03-31T06:07:32.452Z,0.50
2019-03-31T06:10:23.141Z,0.40
2019-03-31T06:13:14.550Z,0.33
2019-03-31T06:16:03.097Z,0.27
2019-03-31T06:18:51.833Z,0.30
2019-03-31T06:21:46.208Z,0.40
2019-03-31T06:28:09.344Z,0.30
2019-03-31T06:31:00.555Z,0.30
2019-03-31T06:34:08.944Z,0.23
2019-03-31T06:37:01.669Z,0.20
2019-03-31T06:42:56.359Z,0.30
2019-03-31T06:46:21.044Z,0.27
2019-03-31T06:52:16.811Z,0.10
2019-03-31T06:55:07.446Z,0.20
2019-03-31T06:57:57.119Z,0.10
2019-03-31T07:00:45.254Z,0.20
2019-03-31T07:03:37.675Z,0.20
2019-03-31T07:06:25.097Z,0.20
2019-03-31T07:09:13.992Z,0.20
2019-03-31T07:15:43.737Z,0.20
2019-03-31T07:21:57.255Z,0.10
2019-03-31T07:24:48.253Z,0.20
2019-03-31T07:27:36.182Z,0.10
2019-03-31T07:30:30.661Z,0.40
2019-03-31T07:33:45.604Z,0.27
2019-03-31T07:36:41.919Z,0.30
2019-03-31T07:39:31.180Z,0.40
2019-03-31T07:42:19.516Z,0.20
2019-03-31T07:45:16.496Z,0.20
2019-03-31T07:48:08.006Z,0.10
2019-03-31T07:50:57.947Z,0.23
2019-03-31T07:53:52.420Z,0.30
2019-03-31T07:57:20.672Z,0.30
2019-03-31T07:59:40.436Z,0.50
2019-03-31T08:02:43.691Z,0.20
2019-03-31T08:05:37.493Z,0.20
2019-03-31T08:08:53.231Z,0.37
2019-03-31T08:11:38.068Z,0.30
2019-03-31T08:14:29.120Z,0.40
2019-03-31T08:17:20.528Z,0.23
2019-03-31T08:20:21.047Z,0.30
2019-03-31T08:23:11.125Z,0.23
2019-03-31T08:29:09.191Z,0.40
2019-03-31T08:31:57.836Z,0.30
2019-03-31T08:34:58.766Z,0.33
2019-03-31T08:37:46.749Z,0.20
2019-03-31T08:44:30.771Z,0.10
2019-03-31T08:47:21.704Z,0.13
2019-03-31T08:50:09.835Z,0.20
2019-03-31T08:53:01.144Z,0.37
2019-03-31T08:55:48.969Z,0.20
2019-03-31T08:58:40.071Z,0.40
2019-03-31T09:01:28.307Z,0.30
2019-03-31T09:04:16.438Z,0.23
2019-03-31T09:07:07.545Z,0.20
2019-03-31T09:09:55.488Z,0.20
2019-03-31T09:12:48.172Z,0.30
2019-03-31T09:15:35.012Z,0.10
2019-03-31T09:18:23.165Z,0.20
2019-03-31T09:21:17.411Z,0.20
2019-03-31T09:24:06.177Z,0.10
2019-03-31T09:26:54.095Z,0.20
2019-03-31T09:29:41.988Z,0.20
2019-03-31T09:32:31.694Z,0.30
2019-03-31T09:35:19.501Z,0.10
2019-03-31T09:38:07.757Z,0.30
2019-03-31T09:40:55.638Z,0.50
2019-03-31T09:43:42.903Z,0.40
2019-03-31T09:46:31.212Z,0.10
2019-03-31T09:49:19.250Z,0.30
2019-03-31T09:52:07.280Z,0.50
2019-03-31T09:54:54.923Z,0.07
2019-03-31T09:57:42.983Z,0.30
2019-03-31T10:00:41.730Z,0.20
2019-03-31T10:03:29.666Z,0.20
2019-03-31T10:06:29.511Z,0.10
2019-03-31T10:09:07.482Z,0.10
2019-03-31T10:11:55.164Z,0.20
2019-03-31T10:14:43.517Z,0.00
2019-03-31T10:17:31.032Z,0.23
2019-03-31T10:20:19.183Z,0.00
2019-03-31T10:23:06.758Z,0.10
2019-03-31T10:25:55.187Z,0.20
2019-03-31T10:28:43.415Z,0.30
2019-03-31T10:31:31.513Z,0.33
2019-03-31T10:34:19.400Z,0.20
2019-03-31T10:37:07.524Z,0.37
2019-03-31T10:39:55.564Z,0.00
2019-03-31T10:42:43.356Z,0.10
2019-03-31T10:45:31.134Z,0.00
2019-03-31T10:48:20.733Z,0.00
2019-03-31T10:51:08.636Z,0.10
2019-03-31T10:53:56.794Z,0.10
2019-03-31T10:56:44.397Z,0.10
2019-03-31T10:59:32.573Z,0.30
2019-03-31T11:02:20.562Z,0.53
2019-03-31T11:05:11.269Z,0.57
2019-03-31T11:07:58.822Z,0.20
2019-03-31T11:10:46.512Z,0.20
2019-03-31T11:13:34.419Z,0.10
2019-03-31T11:16:22.389Z,0.80
2019-03-31T11:19:10.495Z,0.23
2019-03-31T11:22:20.392Z,0.37
2019-03-31T11:25:20.168Z,0.40
2019-03-31T11:27:57.783Z,0.60
2019-03-31T11:30:45.512Z,0.40
2019-03-31T11:33:33.284Z,0.67
2019-03-31T11:36:21.084Z,0.23
2019-03-31T11:39:08.827Z,0.20
2019-03-31T11:41:56.452Z,0.40
2019-03-31T11:44:44.807Z,0.20
2019-03-31T11:47:32.596Z,0.43
2019-03-31T11:50:20.796Z,0.20
2019-03-31T11:53:08.467Z,0.37
2019-03-31T11:55:56.760Z,0.23
2019-03-31T11:58:44.419Z,0.27
2019-03-31T12:01:32.428Z,0.30
2019-03-31T12:04:20.274Z,0.43
2019-03-31T12:07:08.080Z,0.37
2019-03-31T12:09:56.443Z,0.20
2019-03-31T12:12:44.861Z,1.33
2019-03-31T12:15:33.318Z,0.30
2019-03-31T12:18:20.982Z,0.33
2019-03-31T12:21:09.276Z,0.30
2019-03-31T12:23:57.639Z,0.20
2019-03-31T12:26:44.928Z,0.30
2019-03-31T12:29:32.772Z,0.80
2019-03-31T12:32:20.838Z,0.20
2019-03-31T12:35:08.817Z,0.30
2019-03-31T12:37:56.865Z,0.10
2019-03-31T12:40:44.670Z,0.57
2019-03-31T12:43:32.588Z,0.10
2019-03-31T12:46:20.321Z,0.20
2019-03-31T12:49:08.567Z,0.30
2019-03-31T12:51:56.353Z,0.27
2019-03-31T12:54:44.131Z,0.30
2019-03-31T12:57:32.082Z,0.30
2019-03-31T13:00:19.633Z,0.60
2019-03-31T13:03:07.083Z,0.23
2019-03-31T13:05:55.241Z,0.20
2019-03-31T13:08:43.141Z,0.23
2019-03-31T13:11:33.209Z,0.30
2019-03-31T13:14:20.478Z,0.27
2019-03-31T13:17:08.333Z,0.10
2019-03-31T13:19:55.806Z,0.40
2019-03-31T13:22:45.898Z,0.20
2019-03-31T13:25:32.625Z,0.53
2019-03-31T13:28:20.484Z,0.20
2019-03-31T13:31:08.651Z,0.40
2019-03-31T13:33:56.799Z,0.10
2019-03-31T13:36:44.800Z,0.30
2019-03-31T13:39:33.228Z,0.10
2019-03-31T13:42:21.139Z,0.30
2019-03-31T13:45:10.220Z,0.30
2019-03-31T13:47:58.789Z,0.20
2019-03-31T13:50:47.633Z,0.33
2019-03-31T13:53:35.973Z,0.30
2019-03-31T13:56:24.403Z,0.43
2019-03-31T13:59:12.929Z,0.20
2019-03-31T14:02:01.608Z,0.20
2019-03-31T14:04:51.800Z,0.23
2019-03-31T14:07:40.296Z,0.20
2019-03-31T14:10:30.810Z,0.40
2019-03-31T14:13:19.404Z,0.10
2019-03-31T14:16:07.590Z,0.40
2019-03-31T14:18:55.272Z,0.20
2019-03-31T14:21:43.198Z,0.40
2019-03-31T14:24:31.228Z,0.40
2019-03-31T14:27:18.710Z,0.20
2019-03-31T14:30:07.091Z,0.30
2019-03-31T14:32:54.965Z,0.50
2019-03-31T14:35:44.633Z,0.40
2019-03-31T14:38:40.000Z,0.20
2019-03-31T14:41:24.888Z,0.97
2019-03-31T14:44:13.095Z,0.30
2019-03-31T14:49:36.500Z,0.20
2019-03-31T14:52:37.425Z,1.00
2019-03-31T14:55:29.957Z,0.10
2019-03-31T14:58:23.510Z,0.27
2019-03-31T15:01:15.845Z,1.00
2019-03-31T15:04:03.468Z,0.20
2019-03-31T15:06:54.062Z,0.60
2019-03-31T15:09:42.866Z,0.70
2019-03-31T15:12:31.114Z,0.20
2019-03-31T15:15:19.234Z,0.10
2019-03-31T15:18:07.816Z,0.63
2019-03-31T15:20:55.948Z,0.20
2019-03-31T15:23:44.123Z,1.20
2019-03-31T15:26:32.095Z,0.20
2019-03-31T15:29:20.291Z,0.40
2019-03-31T15:32:11.797Z,0.30
2019-03-31T15:35:03.785Z,0.20
2019-03-31T15:37:56.220Z,0.30
2019-03-31T15:40:48.457Z,0.30
2019-03-31T15:43:37.200Z,0.10
2019-03-31T15:46:25.498Z,0.30
2019-03-31T15:49:14.232Z,1.63
2019-03-31T15:52:03.030Z,0.30
2019-03-31T15:55:10.091Z,0.80
2019-03-31T15:57:57.819Z,0.20
2019-03-31T16:00:46.000Z,0.20
2019-03-31T16:03:35.984Z,0.10
2019-03-31T16:06:23.753Z,0.20
2019-03-31T16:09:22.926Z,0.20
2019-03-31T16:12:00.838Z,0.20
2019-03-31T16:14:50.405Z,0.20
2019-03-31T16:17:50.590Z,0.40
2019-03-31T16:20:41.427Z,0.27
2019-03-31T16:23:29.320Z,0.23
2019-03-31T16:26:20.918Z,0.60
2019-03-31T16:29:09.909Z,0.30
2019-03-31T16:31:58.001Z,0.30
2019-03-31T16:34:45.420Z,0.10
2019-03-31T16:37:34.176Z,0.10
2019-03-31T16:40:21.803Z,0.10
2019-03-31T16:43:09.591Z,0.50
2019-03-31T16:45:57.448Z,0.30
2019-03-31T16:48:59.434Z,0.23
2019-03-31T16:51:46.932Z,0.20
2019-03-31T16:54:34.878Z,0.20
2019-03-31T16:57:23.009Z,0.23
2019-03-31T17:00:11.706Z,0.40
2019-03-31T17:02:59.222Z,0.20
2019-03-31T17:05:49.357Z,0.20
2019-03-31T17:08:38.773Z,0.30
2019-03-31T17:11:27.362Z,0.20
2019-03-31T17:14:26.769Z,0.10
2019-03-31T17:17:14.867Z,0.07
2019-03-31T17:20:02.615Z,0.30
2019-03-31T17:22:57.194Z,0.33
2019-03-31T17:25:44.817Z,0.20
2019-03-31T17:28:37.757Z,0.40
2019-03-31T17:31:30.495Z,0.30
2019-03-31T17:34:20.253Z,0.47
2019-03-31T17:37:17.609Z,0.30
2019-03-31T17:40:13.568Z,0.40
2019-03-31T17:50:11.253Z,0.40
2019-03-31T17:53:04.041Z,0.40
2019-03-31T17:56:19.216Z,0.40
2019-03-31T17:59:09.174Z,0.50
2019-03-31T18:02:16.796Z,0.30
2019-03-31T18:05:06.580Z,0.50
2019-03-31T18:08:05.299Z,0.50
2019-03-31T18:10:53.068Z,0.30
2019-03-31T18:13:52.151Z,0.40
2019-03-31T18:16:35.030Z,0.50
2019-03-31T18:22:20.534Z,0.20
2019-03-31T18:25:07.887Z,0.30
2019-03-31T18:27:56.462Z,0.33
2019-03-31T18:34:02.039Z,0.37
2019-03-31T18:36:52.430Z,0.60
2019-03-31T18:40:04.402Z,0.30
2019-03-31T18:42:30.431Z,0.20
2019-03-31T18:46:01.295Z,0.30
2019-03-31T18:48:52.943Z,0.73
2019-03-31T18:51:42.789Z,0.43
2019-03-31T19:02:01.331Z,0.20
2019-03-31T19:14:53.437Z,0.30
2019-03-31T19:21:30.592Z,0.27
2019-03-31T19:24:28.731Z,0.50
2019-03-31T19:24:45.821Z,0.60
2019-03-31T19:27:57.043Z,0.50
2019-03-31T19:31:00.666Z,0.60
2019-03-31T19:44:04.002Z,0.40
2019-03-31T19:47:17.952Z,0.30
2019-03-31T19:50:51.534Z,0.40
2019-03-31T19:54:06.904Z,0.30
2019-03-31T20:00:46.052Z,0.50
2019-03-31T20:04:28.884Z,0.30
2019-03-31T20:07:45.056Z,0.27
2019-03-31T20:11:06.549Z,0.57
2019-03-31T20:18:07.745Z,0.30
2019-03-31T20:21:31.839Z,0.30
2019-03-31T20:24:49.007Z,0.20
2019-03-31T20:28:02.418Z,0.20
2019-03-31T20:31:26.163Z,0.20
2019-03-31T20:34:50.211Z,0.40
2019-03-31T20:38:06.489Z,0.30
2019-03-31T20:41:15.600Z,0.30
2019-03-31T20:44:21.123Z,0.20
2019-03-31T20:47:24.111Z,0.40
2019-03-31T20:50:21.283Z,0.20
2019-03-31T20:53:18.998Z,0.20
2019-03-31T20:56:03.000Z,0.30
2019-03-31T20:58:53.522Z,0.23
2019-03-31T21:01:47.342Z,0.10
2019-03-31T21:04:43.451Z,0.30
2019-03-31T21:14:21.413Z,0.17
2019-03-31T21:17:11.537Z,0.30
2019-03-31T21:23:46.982Z,0.23
2019-03-31T21:26:46.060Z,0.20
2019-03-31T21:29:34.252Z,0.30
2019-03-31T21:36:22.704Z,0.10
2019-03-31T21:39:13.092Z,0.30
2019-03-31T21:42:20.260Z,0.30
2019-03-31T21:45:43.874Z,0.20
2019-03-31T21:48:32.039Z,0.30
2019-03-31T21:51:20.548Z,0.20
2019-03-31T21:54:11.892Z,0.20
2019-03-31T21:57:03.400Z,0.30
2019-03-31T22:13:47.111Z,0.30
2019-03-31T22:16:38.391Z,0.40
2019-03-31T22:20:06.019Z,0.30
2019-03-31T22:23:38.677Z,0.20
2019-03-31T22:26:31.414Z,0.30
2019-03-31T22:29:19.443Z,0.30
2019-03-31T22:32:17.914Z,0.10
2019-03-31T22:35:09.426Z,0.20
2019-03-31T22:38:02.661Z,0.30
2019-03-31T22:40:52.040Z,0.10
2019-03-31T22:43:41.398Z,0.20
2019-03-31T22:46:33.317Z,0.20
2019-03-31T22:49:21.349Z,0.40
2019-03-31T22:52:19.894Z,0.10
2019-03-31T22:55:11.587Z,0.20
2019-03-31T22:58:05.861Z,0.30
2019-03-31T23:00:54.453Z,0.20
2019-03-31T23:04:22.090Z,0.47
2019-03-31T23:07:15.331Z,0.50
2019-03-31T23:10:26.078Z,0.23
2019-03-31T23:13:19.545Z,0.17
2019-03-31T23:16:12.081Z,0.37
2019-03-31T23:19:14.021Z,0.10
2019-03-31T23:22:02.365Z,0.20
2019-03-31T23:25:00.015Z,0.20
2019-03-31T23:27:53.258Z,0.30
2019-03-31T23:30:48.931Z,0.20
2019-03-31T23:33:45.812Z,0.30
2019-03-31T23:36:51.030Z,0.20
2019-03-31T23:40:20.506Z,0.20
2019-03-31T23:46:22.360Z,0.37
2019-03-31T23:50:08.098Z,0.20
2019-03-31T23:53:01.163Z,0.30
2019-03-31T23:59:37.450Z,0.20
